createdAt,value
2019-03-31T00:02:18.465Z,6.00
2019-03-31T00:04:47.101Z,6.10
2019-03-31T00:07:15.767Z,6.10
2019-03-31T00:09:44.320Z,6.10
2019-03-31T00:12:13.111Z,6.10
2019-03-31T00:14:41.645Z,6.10
2019-03-31T00:17:10.273Z,6.10
2019-03-31T00:19:38.862Z,6.10
2019-03-31T00:22:07.434Z,6.10
2019-03-31T00:24:36.022Z,6.20
2019-03-31T00:27:04.762Z,6.10
2019-03-31T00:29:33.363Z,6.10
2019-03-31T00:32:02.275Z,6.20
2019-03-31T00:34:30.894Z,6.20
2019-03-31T00:36:59.466Z,6.10
2019-03-31T00:39:28.075Z,6.10
2019-03-31T00:41:56.645Z,6.10
2019-03-31T00:44:25.451Z,6.10
2019-03-31T00:46:54.577Z,6.10
2019-03-31T00:49:23.364Z,6.10
2019-03-31T00:51:51.959Z,6.10
2019-03-31T00:54:20.620Z,6.10
2019-03-31T00:56:49.286Z,6.00
2019-03-31T00:59:17.860Z,6.00
2019-03-31T01:01:50.930Z,6.00
2019-03-31T01:04:21.104Z,6.00
2019-03-31T01:06:52.375Z,6.00
2019-03-31T01:09:27.675Z,6.00
2019-03-31T01:11:56.903Z,6.00
2019-03-31T01:14:26.979Z,6.00
2019-03-31T01:16:56.087Z,6.10
2019-03-31T01:19:25.689Z,6.10
2019-03-31T01:21:54.289Z,6.10
2019-03-31T01:24:23.270Z,6.10
2019-03-31T01:26:52.201Z,6.10
2019-03-31T01:29:22.164Z,6.10
2019-03-31T01:31:51.469Z,6.10
2019-03-31T01:34:20.258Z,6.10
2019-03-31T01:36:48.902Z,6.10
2019-03-31T01:39:17.574Z,6.20
2019-03-31T01:41:46.305Z,6.20
2019-03-31T01:44:15.263Z,6.20
2019-03-31T01:46:43.892Z,6.30
2019-03-31T01:49:12.526Z,6.40
2019-03-31T01:51:41.199Z,6.50
2019-03-31T01:54:09.826Z,6.50
2019-03-31T01:56:38.466Z,6.60
2019-03-31T01:59:07.069Z,6.60
2019-03-31T02:01:35.869Z,6.70
2019-03-31T02:04:04.586Z,6.70
2019-03-31T02:06:33.927Z,6.70
2019-03-31T02:09:02.586Z,6.70
2019-03-31T02:11:31.424Z,6.70
2019-03-31T02:14:00.028Z,6.70
2019-03-31T02:16:29.106Z,6.70
2019-03-31T02:18:57.682Z,6.70
2019-03-31T02:21:26.262Z,6.70
2019-03-31T02:23:54.888Z,6.70
2019-03-31T02:26:23.606Z,6.70
2019-03-31T02:28:52.195Z,6.70
2019-03-31T02:31:20.859Z,6.80
2019-03-31T02:33:49.460Z,6.80
2019-03-31T02:36:18.052Z,6.80
2019-03-31T02:38:46.622Z,6.80
2019-03-31T02:41:15.254Z,6.80
2019-03-31T02:43:43.942Z,6.90
2019-03-31T02:46:12.872Z,6.90
2019-03-31T02:48:41.563Z,6.90
2019-03-31T02:51:10.197Z,6.90
2019-03-31T02:53:38.929Z,6.90
2019-03-31T02:56:08.035Z,6.90
2019-03-31T02:58:37.440Z,6.90
2019-03-31T03:01:07.051Z,6.90
2019-03-31T03:03:37.686Z,6.80
2019-03-31T03:06:08.945Z,6.80
2019-03-31T03:08:40.054Z,6.80
2019-03-31T03:11:10.848Z,6.90
2019-03-31T03:13:40.965Z,6.90
2019-03-31T03:16:15.446Z,6.90
2019-03-31T03:18:44.447Z,6.90
2019-03-31T03:21:13.183Z,6.90
2019-03-31T03:23:41.883Z,6.90
2019-03-31T03:26:10.668Z,7.00
2019-03-31T03:28:39.228Z,7.00
2019-03-31T03:31:14.718Z,7.00
2019-03-31T03:33:38.088Z,7.00
2019-03-31T03:36:06.733Z,6.90
2019-03-31T03:38:35.343Z,6.90
2019-03-31T03:41:03.977Z,6.80
2019-03-31T03:43:32.991Z,6.80
2019-03-31T03:46:01.563Z,6.70
2019-03-31T03:48:30.222Z,6.70
2019-03-31T03:50:58.797Z,6.70
2019-03-31T03:53:27.511Z,6.70
2019-03-31T03:55:56.304Z,6.80
2019-03-31T03:58:24.898Z,6.80
2019-03-31T04:00:53.520Z,6.80
2019-03-31T04:03:30.355Z,6.80
2019-03-31T04:05:52.678Z,6.90
2019-03-31T04:08:21.210Z,6.90
2019-03-31T04:10:52.855Z,7.00
2019-03-31T04:13:21.427Z,7.00
2019-03-31T04:15:50.111Z,7.10
2019-03-31T04:18:18.697Z,7.00
2019-03-31T04:20:47.420Z,7.10
2019-03-31T04:23:15.975Z,7.10
2019-03-31T04:25:44.550Z,7.10
2019-03-31T04:28:13.147Z,7.10
2019-03-31T04:30:41.712Z,7.10
2019-03-31T04:33:10.316Z,7.20
2019-03-31T04:35:38.955Z,7.30
2019-03-31T04:38:07.617Z,7.30
2019-03-31T04:40:36.212Z,7.30
2019-03-31T04:43:04.879Z,7.30
2019-03-31T04:45:33.764Z,7.30
2019-03-31T04:48:02.421Z,7.30
2019-03-31T04:50:30.981Z,7.40
2019-03-31T04:52:59.814Z,7.40
2019-03-31T04:55:28.474Z,7.40
2019-03-31T04:57:57.107Z,7.40
2019-03-31T05:00:25.831Z,7.40
2019-03-31T05:02:54.452Z,7.40
2019-03-31T05:05:23.043Z,7.40
2019-03-31T05:07:51.642Z,7.50
2019-03-31T05:10:20.599Z,7.50
2019-03-31T05:12:49.122Z,7.60
2019-03-31T05:15:17.758Z,7.60
2019-03-31T05:17:46.366Z,7.70
2019-03-31T05:20:15.081Z,7.70
2019-03-31T05:22:43.657Z,7.70
2019-03-31T05:25:12.701Z,7.80
2019-03-31T05:27:41.289Z,7.70
2019-03-31T05:30:10.527Z,7.80
2019-03-31T05:32:39.120Z,7.80
2019-03-31T05:35:08.557Z,7.90
2019-03-31T05:37:50.292Z,7.90
2019-03-31T05:40:07.536Z,7.90
2019-03-31T05:42:36.276Z,7.90
2019-03-31T05:45:06.684Z,7.90
2019-03-31T05:47:35.225Z,7.90
2019-03-31T05:50:05.858Z,7.90
2019-03-31T05:52:34.671Z,7.90
2019-03-31T05:55:04.898Z,7.90
2019-03-31T05:57:33.503Z,7.90
2019-03-31T06:00:02.138Z,7.90
2019-03-31T06:02:30.834Z,8.00
2019-03-31T06:04:59.472Z,8.00
2019-03-31T06:07:28.067Z,8.00
2019-03-31T06:09:56.748Z,8.10
2019-03-31T06:12:25.370Z,8.00
2019-03-31T06:14:54.006Z,8.10
2019-03-31T06:17:22.566Z,8.10
2019-03-31T06:19:51.419Z,8.10
2019-03-31T06:22:20.058Z,8.10
2019-03-31T06:24:48.641Z,8.10
2019-03-31T06:27:17.279Z,8.20
2019-03-31T06:29:45.916Z,8.20
2019-03-31T06:32:14.835Z,8.00
2019-03-31T06:34:47.755Z,8.10
2019-03-31T06:37:13.654Z,8.20
2019-03-31T06:39:42.245Z,8.20
2019-03-31T06:42:11.106Z,8.20
2019-03-31T06:44:39.781Z,8.20
2019-03-31T06:47:10.355Z,8.30
2019-03-31T06:49:38.763Z,8.40
2019-03-31T06:52:07.431Z,8.50
2019-03-31T06:54:36.021Z,8.70
2019-03-31T06:57:04.743Z,8.70
2019-03-31T06:59:33.370Z,8.80
2019-03-31T07:02:03.342Z,8.80
2019-03-31T07:04:32.180Z,8.70
2019-03-31T07:07:00.845Z,8.60
2019-03-31T07:09:29.527Z,8.60
2019-03-31T07:11:58.114Z,8.50
2019-03-31T07:14:26.753Z,8.60
2019-03-31T07:16:55.325Z,8.70
2019-03-31T07:19:23.931Z,8.90
2019-03-31T07:21:52.710Z,9.00
2019-03-31T07:24:25.174Z,9.10
2019-03-31T07:26:53.729Z,9.10
2019-03-31T07:29:22.544Z,9.10
2019-03-31T07:31:51.227Z,9.30
2019-03-31T07:34:19.776Z,9.60
2019-03-31T07:36:48.403Z,9.50
2019-03-31T07:39:17.348Z,9.30
2019-03-31T07:41:46.277Z,9.50
2019-03-31T07:44:15.445Z,9.50
2019-03-31T07:46:45.323Z,9.50
2019-03-31T07:49:13.895Z,9.50
2019-03-31T07:51:42.530Z,9.40
2019-03-31T07:54:11.196Z,9.40
2019-03-31T07:56:39.865Z,9.10
2019-03-31T07:59:09.860Z,9.00
2019-03-31T08:01:38.533Z,9.10
2019-03-31T08:04:07.195Z,9.20
2019-03-31T08:06:36.173Z,9.20
2019-03-31T08:09:06.876Z,9.10
2019-03-31T08:11:35.538Z,9.30
2019-03-31T08:14:04.586Z,9.50
2019-03-31T08:16:33.553Z,9.50
2019-03-31T08:19:02.204Z,9.60
2019-03-31T08:21:32.663Z,9.60
2019-03-31T08:24:01.557Z,9.70
2019-03-31T08:26:30.225Z,9.60
2019-03-31T08:28:58.882Z,9.40
2019-03-31T08:31:27.921Z,9.30
2019-03-31T08:33:56.530Z,9.40
2019-03-31T08:36:25.323Z,9.60
2019-03-31T08:38:53.878Z,9.50
2019-03-31T08:41:22.626Z,9.70
2019-03-31T08:43:51.201Z,9.60
2019-03-31T08:46:19.892Z,9.70
2019-03-31T08:48:48.550Z,9.50
2019-03-31T08:51:17.169Z,9.50
2019-03-31T08:53:45.806Z,9.60
2019-03-31T08:56:14.766Z,9.40
2019-03-31T08:58:43.754Z,9.40
2019-03-31T09:01:16.644Z,9.30
2019-03-31T09:03:45.302Z,9.40
2019-03-31T09:06:14.084Z,9.80
2019-03-31T09:08:44.863Z,10.60
2019-03-31T09:11:14.000Z,11.40
2019-03-31T09:13:42.663Z,11.80
2019-03-31T09:16:11.362Z,12.30
2019-03-31T09:18:40.063Z,11.90
2019-03-31T09:21:08.720Z,12.00
2019-03-31T09:23:37.407Z,13.00
2019-03-31T09:26:06.012Z,13.50
2019-03-31T09:28:34.686Z,13.20
2019-03-31T09:31:03.355Z,12.90
2019-03-31T09:33:32.014Z,14.00
2019-03-31T09:36:15.140Z,15.10
2019-03-31T09:38:30.881Z,16.10
2019-03-31T09:40:59.625Z,16.40
2019-03-31T09:43:28.329Z,16.80
2019-03-31T09:45:57.086Z,15.30
2019-03-31T09:48:25.801Z,15.30
2019-03-31T09:50:56.543Z,15.60
2019-03-31T09:53:24.771Z,14.40
2019-03-31T09:55:53.614Z,12.20
2019-03-31T09:58:22.272Z,11.30
2019-03-31T10:00:53.086Z,10.80
2019-03-31T10:03:22.093Z,10.60
2019-03-31T10:05:51.126Z,10.20
2019-03-31T10:08:21.947Z,10.70
2019-03-31T10:10:50.946Z,11.40
2019-03-31T10:13:19.695Z,12.00
2019-03-31T10:15:49.789Z,12.20
2019-03-31T10:18:18.576Z,12.70
2019-03-31T10:20:47.591Z,13.90
2019-03-31T10:23:16.239Z,14.60
2019-03-31T10:25:44.912Z,15.00
2019-03-31T10:28:13.874Z,15.00
2019-03-31T10:30:42.615Z,14.00
2019-03-31T10:33:11.312Z,13.40
2019-03-31T10:35:39.951Z,12.50
2019-03-31T10:38:09.214Z,12.00
2019-03-31T10:40:37.858Z,11.60
2019-03-31T10:43:06.584Z,11.00
2019-03-31T10:45:35.208Z,10.70
2019-03-31T10:48:04.060Z,10.40
2019-03-31T10:50:32.710Z,10.30
2019-03-31T10:53:01.627Z,10.00
2019-03-31T10:55:30.263Z,9.90
2019-03-31T10:57:58.904Z,9.90
2019-03-31T11:00:36.139Z,10.10
2019-03-31T11:03:06.380Z,10.10
2019-03-31T11:05:35.089Z,10.20
2019-03-31T11:08:04.633Z,10.10
2019-03-31T11:10:33.298Z,10.20
2019-03-31T11:13:01.981Z,10.20
2019-03-31T11:15:30.602Z,10.10
2019-03-31T11:17:59.183Z,10.40
2019-03-31T11:20:27.938Z,10.50
2019-03-31T11:23:07.366Z,10.90
2019-03-31T11:25:36.057Z,12.40
2019-03-31T11:28:04.786Z,14.50
2019-03-31T11:30:33.384Z,15.60
2019-03-31T11:33:02.084Z,14.50
2019-03-31T11:35:30.826Z,14.10
2019-03-31T11:37:59.652Z,13.80
2019-03-31T11:40:28.234Z,14.60
2019-03-31T11:42:56.881Z,14.00
2019-03-31T11:45:25.737Z,14.70
2019-03-31T11:47:54.336Z,16.00
2019-03-31T11:50:23.042Z,18.60
2019-03-31T11:52:51.677Z,17.80
2019-03-31T11:55:20.348Z,15.70
2019-03-31T11:57:48.979Z,13.60
2019-03-31T12:00:19.677Z,12.40
2019-03-31T12:02:48.495Z,11.70
2019-03-31T12:05:17.254Z,11.50
2019-03-31T12:07:47.667Z,11.10
2019-03-31T12:10:19.692Z,10.40
2019-03-31T12:12:46.983Z,10.00
2019-03-31T12:15:17.182Z,9.90
2019-03-31T12:17:45.843Z,9.90
2019-03-31T12:20:14.656Z,10.20
2019-03-31T12:22:43.336Z,11.60
2019-03-31T12:25:12.398Z,12.30
2019-03-31T12:27:41.115Z,12.90
2019-03-31T12:30:10.524Z,12.10
2019-03-31T12:32:39.250Z,11.00
2019-03-31T12:35:10.041Z,10.80
2019-03-31T12:37:42.771Z,11.60
2019-03-31T12:40:15.202Z,12.80
2019-03-31T12:42:42.309Z,12.60
2019-03-31T12:45:11.419Z,13.40
2019-03-31T12:47:41.851Z,12.40
2019-03-31T12:50:10.752Z,12.80
2019-03-31T12:52:46.598Z,15.40
2019-03-31T12:55:09.798Z,15.50
2019-03-31T12:57:38.810Z,17.20
2019-03-31T13:00:08.883Z,17.40
2019-03-31T13:02:37.526Z,17.50
2019-03-31T13:05:08.939Z,16.90
2019-03-31T13:07:37.522Z,16.40
2019-03-31T13:10:06.486Z,16.50
2019-03-31T13:12:36.861Z,18.30
2019-03-31T13:15:08.683Z,18.40
2019-03-31T13:17:37.243Z,17.10
2019-03-31T13:20:07.708Z,15.50
2019-03-31T13:22:36.401Z,14.30
2019-03-31T13:25:08.833Z,15.20
2019-03-31T13:27:37.530Z,16.30
2019-03-31T13:30:08.228Z,16.70
2019-03-31T13:32:36.906Z,17.20
2019-03-31T13:35:08.614Z,16.90
2019-03-31T13:37:37.355Z,16.50
2019-03-31T13:40:07.581Z,16.40
2019-03-31T13:42:36.309Z,16.10
2019-03-31T13:45:08.454Z,14.10
2019-03-31T13:47:37.060Z,14.30
2019-03-31T13:50:07.893Z,16.00
2019-03-31T13:52:38.447Z,17.00
2019-03-31T13:55:10.066Z,16.50
2019-03-31T13:57:44.324Z,17.00
2019-03-31T14:00:15.392Z,17.40
2019-03-31T14:02:44.182Z,15.70
2019-03-31T14:05:13.095Z,15.20
2019-03-31T14:07:41.886Z,14.70
2019-03-31T14:10:10.684Z,13.60
2019-03-31T14:12:39.552Z,12.50
2019-03-31T14:15:19.006Z,11.80
2019-03-31T14:17:40.089Z,11.90
2019-03-31T14:20:09.313Z,11.50
2019-03-31T14:22:38.030Z,12.40
2019-03-31T14:25:07.363Z,13.40
2019-03-31T14:27:35.975Z,13.60
2019-03-31T14:30:06.939Z,12.40
2019-03-31T14:32:35.619Z,12.70
2019-03-31T14:35:05.545Z,11.60
2019-03-31T14:37:34.333Z,10.90
2019-03-31T14:40:03.366Z,9.70
2019-03-31T14:42:32.019Z,9.50
2019-03-31T14:45:00.687Z,9.50
2019-03-31T14:47:29.382Z,9.70
2019-03-31T14:49:58.096Z,9.20
2019-03-31T14:52:27.974Z,8.40
2019-03-31T14:54:56.910Z,8.40
2019-03-31T14:57:25.565Z,7.80
2019-03-31T14:59:54.251Z,7.20
2019-03-31T15:02:22.814Z,6.90
2019-03-31T15:04:51.487Z,7.10
2019-03-31T15:07:20.087Z,7.00
2019-03-31T15:09:49.108Z,7.20
2019-03-31T15:12:20.421Z,7.00
2019-03-31T15:14:49.189Z,7.20
2019-03-31T15:17:18.004Z,7.20
2019-03-31T15:19:46.561Z,7.20
2019-03-31T15:22:16.986Z,7.00
2019-03-31T15:24:45.820Z,6.80
2019-03-31T15:27:14.384Z,6.50
2019-03-31T15:29:45.730Z,6.30
2019-03-31T15:32:14.487Z,6.50
2019-03-31T15:34:49.837Z,6.60
2019-03-31T15:37:19.410Z,7.00
2019-03-31T15:39:48.360Z,7.20
2019-03-31T15:42:17.008Z,7.40
2019-03-31T15:44:45.591Z,7.40
2019-03-31T15:47:14.531Z,7.50
2019-03-31T15:49:43.266Z,7.50
2019-03-31T15:52:11.928Z,7.60
2019-03-31T15:54:40.584Z,7.40
2019-03-31T15:57:09.813Z,6.70
2019-03-31T15:59:41.943Z,6.70
2019-03-31T16:02:10.572Z,6.50
2019-03-31T16:04:39.224Z,6.30
2019-03-31T16:07:08.166Z,6.30
2019-03-31T16:09:36.863Z,6.00
2019-03-31T16:12:05.739Z,5.90
2019-03-31T16:14:34.468Z,6.00
2019-03-31T16:17:04.546Z,6.00
2019-03-31T16:19:33.433Z,5.90
2019-03-31T16:22:02.165Z,5.50
2019-03-31T16:24:35.466Z,5.30
2019-03-31T16:27:04.271Z,5.20
2019-03-31T16:29:33.046Z,5.20
2019-03-31T16:32:02.674Z,5.10
2019-03-31T16:34:32.788Z,5.10
2019-03-31T16:37:01.692Z,5.10
2019-03-31T16:39:37.601Z,4.90
2019-03-31T16:42:00.964Z,4.80
2019-03-31T16:44:29.534Z,4.70
2019-03-31T16:46:58.227Z,4.60
2019-03-31T16:49:29.693Z,4.70
2019-03-31T16:51:58.383Z,4.60
2019-03-31T16:54:27.055Z,4.60
2019-03-31T16:56:55.758Z,4.50
2019-03-31T16:59:24.595Z,4.40
2019-03-31T17:01:53.330Z,4.50
2019-03-31T17:04:22.023Z,4.40
2019-03-31T17:06:50.672Z,4.40
2019-03-31T17:09:21.128Z,4.40
2019-03-31T17:11:51.542Z,4.30
2019-03-31T17:14:20.400Z,4.20
2019-03-31T17:16:49.476Z,4.30
2019-03-31T17:19:18.424Z,4.20
2019-03-31T17:21:48.727Z,4.20
2019-03-31T17:24:21.726Z,4.10
2019-03-31T17:27:07.892Z,4.10
2019-03-31T17:29:44.529Z,4.10
2019-03-31T17:32:12.885Z,4.10
2019-03-31T17:34:41.534Z,4.00
2019-03-31T17:37:10.548Z,4.00
2019-03-31T17:39:39.315Z,4.00
2019-03-31T17:42:08.071Z,3.90
2019-03-31T17:44:36.861Z,3.90
2019-03-31T17:47:05.892Z,3.90
2019-03-31T17:49:34.493Z,3.80
2019-03-31T17:52:03.565Z,3.80
2019-03-31T17:54:32.177Z,3.80
2019-03-31T17:57:00.799Z,3.80
2019-03-31T17:59:29.496Z,3.70
2019-03-31T18:01:58.302Z,3.70
2019-03-31T18:04:27.036Z,3.70
2019-03-31T18:06:55.898Z,3.70
2019-03-31T18:09:24.498Z,3.60
2019-03-31T18:11:53.346Z,3.60
2019-03-31T18:14:22.039Z,3.60
2019-03-31T18:16:50.709Z,3.50
2019-03-31T18:19:19.314Z,3.50
2019-03-31T18:21:47.974Z,3.50
2019-03-31T18:24:18.427Z,3.50
2019-03-31T18:26:47.130Z,3.40
2019-03-31T18:29:15.718Z,3.30
2019-03-31T18:31:44.421Z,3.40
2019-03-31T18:34:13.650Z,3.30
2019-03-31T18:36:42.307Z,3.30
2019-03-31T18:39:10.983Z,3.30
2019-03-31T18:41:39.699Z,3.20
2019-03-31T18:44:08.683Z,3.20
2019-03-31T18:46:37.262Z,3.20
2019-03-31T18:49:05.956Z,3.20
2019-03-31T18:51:34.735Z,3.10
2019-03-31T18:54:20.373Z,3.10
2019-03-31T18:56:50.634Z,3.10
2019-03-31T18:59:36.106Z,3.00
2019-03-31T19:02:10.023Z,3.00
2019-03-31T19:04:55.306Z,3.00
2019-03-31T19:07:42.099Z,3.00
2019-03-31T19:10:24.472Z,2.90
2019-03-31T19:12:51.201Z,2.90
2019-03-31T19:15:23.420Z,2.90
2019-03-31T19:17:56.597Z,2.90
2019-03-31T19:20:31.422Z,2.90
2019-03-31T19:23:13.829Z,2.90
2019-03-31T19:25:47.116Z,2.90
2019-03-31T19:28:19.987Z,2.90
2019-03-31T19:30:52.644Z,2.90
2019-03-31T19:33:39.177Z,2.80
2019-03-31T19:36:12.117Z,2.80
2019-03-31T19:38:42.398Z,2.80
2019-03-31T19:41:18.654Z,2.80
2019-03-31T19:43:49.063Z,2.80
2019-03-31T19:46:27.893Z,2.80
2019-03-31T19:49:03.941Z,2.70
2019-03-31T19:51:34.194Z,2.70
2019-03-31T19:54:04.557Z,2.80
2019-03-31T19:56:34.847Z,2.80
2019-03-31T19:59:13.651Z,2.70
2019-03-31T20:02:02.097Z,2.70
2019-03-31T20:04:46.206Z,2.70
2019-03-31T20:07:22.537Z,2.70
2019-03-31T20:10:08.018Z,2.70
2019-03-31T20:12:38.328Z,2.60
2019-03-31T20:15:27.749Z,2.60
2019-03-31T20:18:14.458Z,2.60
2019-03-31T20:21:00.020Z,2.60
2019-03-31T20:23:45.382Z,2.50
2019-03-31T20:26:21.301Z,2.50
2019-03-31T20:29:07.940Z,2.50
2019-03-31T20:31:56.414Z,2.50
2019-03-31T20:34:26.704Z,2.50
2019-03-31T20:37:14.882Z,2.50
2019-03-31T20:39:56.079Z,2.40
2019-03-31T20:42:35.351Z,2.30
2019-03-31T20:45:06.045Z,2.30
2019-03-31T20:47:34.897Z,2.30
2019-03-31T20:50:05.307Z,2.30
2019-03-31T20:52:33.892Z,2.30
2019-03-31T20:55:15.685Z,2.30
2019-03-31T20:57:32.778Z,2.30
2019-03-31T21:00:01.397Z,2.20
2019-03-31T21:02:29.966Z,2.20
2019-03-31T21:04:58.538Z,2.20
2019-03-31T21:07:27.141Z,2.20
2019-03-31T21:09:55.781Z,2.20
2019-03-31T21:12:24.496Z,2.10
2019-03-31T21:14:53.121Z,2.10
2019-03-31T21:17:22.118Z,2.00
2019-03-31T21:19:50.703Z,2.10
2019-03-31T21:22:19.269Z,2.00
2019-03-31T21:24:47.848Z,2.00
2019-03-31T21:27:16.515Z,2.00
2019-03-31T21:29:45.111Z,2.00
2019-03-31T21:32:13.964Z,2.00
2019-03-31T21:34:42.515Z,2.00
2019-03-31T21:37:11.079Z,2.00
2019-03-31T21:39:39.672Z,2.00
2019-03-31T21:42:08.224Z,2.00
2019-03-31T21:44:36.811Z,1.90
2019-03-31T21:47:05.446Z,1.90
2019-03-31T21:49:34.441Z,1.90
2019-03-31T21:52:03.088Z,1.90
2019-03-31T21:54:31.669Z,1.90
2019-03-31T21:57:00.262Z,1.90
2019-03-31T21:59:28.833Z,1.90
2019-03-31T22:01:57.576Z,1.90
2019-03-31T22:04:26.141Z,1.90
2019-03-31T22:06:54.919Z,1.90
2019-03-31T22:09:23.507Z,1.90
2019-03-31T22:11:52.089Z,1.90
2019-03-31T22:14:20.673Z,1.90
2019-03-31T22:16:49.342Z,1.80
2019-03-31T22:19:18.026Z,1.90
2019-03-31T22:21:46.567Z,1.90
2019-03-31T22:24:15.394Z,1.80
2019-03-31T22:26:43.982Z,1.80
2019-03-31T22:29:12.762Z,1.80
2019-03-31T22:31:41.346Z,1.80
2019-03-31T22:34:09.918Z,1.80
2019-03-31T22:36:38.807Z,1.80
2019-03-31T22:39:08.072Z,1.90
2019-03-31T22:41:36.717Z,1.90
2019-03-31T22:44:05.862Z,1.90
2019-03-31T22:46:34.409Z,1.90
2019-03-31T22:49:02.974Z,2.00
2019-03-31T22:51:31.639Z,2.00
2019-03-31T22:54:00.193Z,2.00
2019-03-31T22:56:28.800Z,2.00
2019-03-31T22:58:57.383Z,2.00
2019-03-31T23:01:26.109Z,2.00
2019-03-31T23:03:54.673Z,2.00
2019-03-31T23:06:23.262Z,2.00
2019-03-31T23:08:52.002Z,2.10
2019-03-31T23:11:20.995Z,2.10
2019-03-31T23:13:49.554Z,2.00
2019-03-31T23:16:18.361Z,2.10
2019-03-31T23:18:47.377Z,2.10
2019-03-31T23:21:16.005Z,2.10
2019-03-31T23:23:44.787Z,2.00
2019-03-31T23:26:13.474Z,2.00
2019-03-31T23:28:47.800Z,2.10
2019-03-31T23:31:17.249Z,2.10
2019-03-31T23:33:45.986Z,2.10
2019-03-31T23:36:14.726Z,2.10
2019-03-31T23:38:43.362Z,2.10
2019-03-31T23:41:11.925Z,2.10
2019-03-31T23:43:40.626Z,2.10
2019-03-31T23:46:09.215Z,2.10
2019-03-31T23:48:37.870Z,2.10
2019-03-31T23:51:06.494Z,2.10
2019-03-31T23:53:35.089Z,2.00
2019-03-31T23:56:03.679Z,2.00
2019-03-31T23:58:32.537Z,2.00
